Sea-land Charger — WDB9948 — position and weather

sailwx.info

Track history (hours):
 
Tides and Currents Weather Stations Pressure Air Temp Water Temp Dewpoint Dewpoint Depression Visibility Wind Speed Wind Dir Waves Ship Positions

Sea-land Charger

More information available from US FCC via Universal Licensing System.

Last reported at 2014-Jul-31 11:33 UTC. Time now 2014-Jul-31 11:38 UTC.
Position N 37°43' W 122°44'.

Type: Cargo ship. MMSI: 303279000.

Date/timePositionNaut miles runAvg speedWind from/ knotsBaromVisibWave heightAir tempDewpointWater temp
2014-Jul-31 11:33N 37°43' W 122°44'1010.1
2014-Jul-31 10:33N 37°37' W 122°54'1010.0
2014-Jul-31 09:33N 37°29' W 123°03'1111.4
2014-Jul-31 08:33N 37°18' W 122°59'1010.0
2014-Jul-31 07:33N 37°08' W 122°57'10 9.6
2014-Jul-31 06:33N 36°59' W 122°53'1111.2
2014-Jul-31 05:33N 36°49' W 122°48'1111.3
2014-Jul-31 04:33N 36°38' W 122°42'1111.1
2014-Jul-31 03:33N 36°28' W 122°37'1111.1
2014-Jul-31 02:33N 36°18' W 122°31'1111.3
2014-Jul-31 01:33N 36°08' W 122°25'1110.7
2014-Jul-31 00:33N 35°59' W 122°18'1111.1
2014-Jul-30 23:33N 35°50' W 122°10'1111.5
2014-Jul-30 22:33N 35°40' W 122°02'1111.2
2014-Jul-30 21:33N 35°32' W 121°53'1110.9
2014-Jul-30 20:33N 35°24' W 121°44'1111.2
2014-Jul-30 19:33N 35°15' W 121°36'1111.2
2014-Jul-30 18:33N 35°06' W 121°28'1111.4
2014-Jul-30 17:33N 34°57' W 121°19'1111.2
2014-Jul-30 16:33N 34°48' W 121°11'1111.2
2014-Jul-30 15:33N 34°39' W 121°03'1010.3
2014-Jul-30 14:33N 34°31' W 120°55'10 9.7
2014-Jul-30 13:33N 34°25' W 120°46'10 9.8
2014-Jul-30 12:33N 34°22' W 120°34'1010.1
2014-Jul-30 11:33N 34°20' W 120°22'1110.7
2014-Jul-30 10:33N 34°17' W 120°10'1010.4
2014-Jul-30 09:33N 34°14' W 119°58'1010.0
2014-Jul-30 08:33N 34°11' W 119°46'1010.2
2014-Jul-30 07:33N 34°09' W 119°34'1010.3
2014-Jul-30 06:33N 34°06' W 119°22'1110.7
2014-Jul-30 05:33N 34°02' W 119°10'1111.0
2014-Jul-30 04:33N 33°56' W 118°59'1110.6
2014-Jul-30 03:33N 33°51' W 118°48'1110.6
2014-Jul-30 02:33N 33°46' W 118°37'1111.2
2014-Jul-30 01:33N 33°40' W 118°25'9 8.6
2014-Jul-30 00:33N 33°42' W 118°15'2 2.2
2014-Jul-29 23:32N 33°44' W 118°15'0 0.0
2014-Jul-29 22:32N 33°44' W 118°15'0 0.0
2014-Jul-29 21:32N 33°44' W 118°15'0 0.0
2014-Jul-29 20:32N 33°44' W 118°15'0 0.0
2014-Jul-29 19:32N 33°44' W 118°15'0 0.0
2014-Jul-29 18:29N 33°44' W 118°15'0 0.0
2014-Jul-29 17:32N 33°44' W 118°15'0 0.0
2014-Jul-29 16:29N 33°44' W 118°15'0 0.0
2014-Jul-29 15:32N 33°44' W 118°15'0 0.0
2014-Jul-29 14:32N 33°44' W 118°15'0 0.0
2014-Jul-29 13:32N 33°44' W 118°15'0 0.0
2014-Jul-29 12:32N 33°44' W 118°15'0 0.0
2014-Jul-29 11:32N 33°44' W 118°15'0 0.0
2014-Jul-29 10:32N 33°44' W 118°15'0 0.0
2014-Jul-29 09:32N 33°44' W 118°15'0 0.0
2014-Jul-29 08:32N 33°44' W 118°15'0 0.0
2014-Jul-29 07:32N 33°44' W 118°15'0 0.0
2014-Jul-29 06:32N 33°44' W 118°15'0 0.0
2014-Jul-29 05:32N 33°44' W 118°15'0 0.0
2014-Jul-29 04:32N 33°44' W 118°15'0 0.0
2014-Jul-29 03:32N 33°44' W 118°15'0 0.0
2014-Jul-29 02:32N 33°44' W 118°15'0 0.0
2014-Jul-29 01:32N 33°44' W 118°15'0 0.0
2014-Jul-29 00:32N 33°44' W 118°15'0 0.0
2014-Jul-28 23:32N 33°44' W 118°15'0 0.0
2014-Jul-28 22:32N 33°44' W 118°15'0 0.0
2014-Jul-28 21:32N 33°44' W 118°15'0 0.0
2014-Jul-28 20:32N 33°44' W 118°15'0 0.0
2014-Jul-28 19:32N 33°44' W 118°15'0 0.0
2014-Jul-28 18:32N 33°44' W 118°15'0 0.0
2014-Jul-28 17:32N 33°44' W 118°15'0 0.0
2014-Jul-28 16:32N 33°44' W 118°15'0 0.0
2014-Jul-28 15:32N 33°44' W 118°15'0 0.0
2014-Jul-28 14:32N 33°44' W 118°15'0 0.0
2014-Jul-28 13:32N 33°44' W 118°15'0 0.0
2014-Jul-28 12:32N 33°44' W 118°15'0 0.3
2014-Jul-28 11:34N 33°44' W 118°15'6 5.6
2014-Jul-28 10:33N 33°38' W 118°16'8 7.7
2014-Jul-28 09:34N 33°38' W 118°25'9 8.6
2014-Jul-28 08:33N 33°42' W 118°34'1010.4
2014-Jul-28 07:34N 33°48' W 118°45'1212.3
2014-Jul-28 06:34N 33°54' W 118°58'1313.4
2014-Jul-28 05:34N 34°00' W 119°12'1313.1
2014-Jul-28 04:33N 34°05' W 119°26'1313.0
2014-Jul-28 03:33N 34°08' W 119°42'1313.2
2014-Jul-28 02:33N 34°12' W 119°57'1313.0
2014-Jul-28 01:33N 34°15' W 120°12'1412.9
2014-Jul-28 00:29N 34°19' W 120°28'1312.6
2014-Jul-27 23:30N 34°22' W 120°43'1111.4
2014-Jul-27 22:33N 34°25' W 120°56'1312.6
2014-Jul-27 21:32N 34°27' W 121°11'1212.4
2014-Jul-27 20:33N 34°28' W 121°26'1515.4
2014-Jul-27 19:33N 34°33' W 121°43'1615.9
2014-Jul-27 18:33N 34°36' W 122°02'814.4
2014-Jul-27 18:00N 34°36' W 122°12'919.5 110 / 131017.510.8 2.017.012.517.0
2014-Jul-27 17:33N 34°40' W 122°21'1615.8
2014-Jul-27 16:33N 34°43' W 122°40'1615.7
2014-Jul-27 15:33N 34°47' W 122°58'1818.3
2014-Jul-27 14:33N 34°49' W 123°21'1918.5
2014-Jul-27 13:33N 34°52' W 123°43'1817.8
2014-Jul-27 12:33N 34°57' W 124°04'813.4
2014-Jul-27 12:00N 34°54' W 124°12'1330.4 340 / 201017.010.8 2.016.012.418.0
2014-Jul-27 11:33N 35°01' W 124°26'1818.3
2014-Jul-27 10:33N 35°05' W 124°48'3618.2
2014-Jul-27 08:33N 35°11' W 125°31'1817.7
2014-Jul-27 07:33N 35°18' W 125°52'1818.3
2014-Jul-27 06:33N 35°27' W 126°11'1818.4
2014-Jul-27 05:33N 35°36' W 126°30'1818.2
2014-Jul-27 04:33N 35°46' W 126°50'2218.4
2014-Jul-27 03:19N 35°57' W 127°13'5917.6
2014-Jul-27 00:00N 36°24' W 128°18'   360 / 201021.510.8 2.018.012.719.0
2014-Jul-23 18:00N 44°48' W 158°42'91219.0 200 / 71031.0 0.3 1.015.014.115.0
2014-Jul-21 18:00N 45°18' E 179°48'   260 / 141024.5 5.4 1.011.510.511.0
Track history (hours):
 
Tides and Currents Weather Stations Pressure Air Temp Water Temp Dewpoint Dewpoint Depression Visibility Wind Speed Wind Dir Waves Ship Positions

Sea-land Charger

More information available from US FCC via Universal Licensing System.

Last reported at 2014-Jul-31 11:33 UTC. Time now 2014-Jul-31 11:38 UTC.
Position N 37°43' W 122°44'.

Type: Cargo ship. MMSI: 303279000.

Date/timePositionNaut miles runAvg speedWind from/ knotsBaromVisibWave heightAir tempDewpointWater temp
2014-Jul-31 11:33N 37°43' W 122°44'1010.1
2014-Jul-31 10:33N 37°37' W 122°54'1010.0
2014-Jul-31 09:33N 37°29' W 123°03'1111.4
2014-Jul-31 08:33N 37°18' W 122°59'1010.0
2014-Jul-31 07:33N 37°08' W 122°57'10 9.6
2014-Jul-31 06:33N 36°59' W 122°53'1111.2
2014-Jul-31 05:33N 36°49' W 122°48'1111.3
2014-Jul-31 04:33N 36°38' W 122°42'1111.1
2014-Jul-31 03:33N 36°28' W 122°37'1111.1
2014-Jul-31 02:33N 36°18' W 122°31'1111.3
2014-Jul-31 01:33N 36°08' W 122°25'1110.7
2014-Jul-31 00:33N 35°59' W 122°18'1111.1
2014-Jul-30 23:33N 35°50' W 122°10'1111.5
2014-Jul-30 22:33N 35°40' W 122°02'1111.2
2014-Jul-30 21:33N 35°32' W 121°53'1110.9
2014-Jul-30 20:33N 35°24' W 121°44'1111.2
2014-Jul-30 19:33N 35°15' W 121°36'1111.2
2014-Jul-30 18:33N 35°06' W 121°28'1111.4
2014-Jul-30 17:33N 34°57' W 121°19'1111.2
2014-Jul-30 16:33N 34°48' W 121°11'1111.2
2014-Jul-30 15:33N 34°39' W 121°03'1010.3
2014-Jul-30 14:33N 34°31' W 120°55'10 9.7
2014-Jul-30 13:33N 34°25' W 120°46'10 9.8
2014-Jul-30 12:33N 34°22' W 120°34'1010.1
2014-Jul-30 11:33N 34°20' W 120°22'1110.7
2014-Jul-30 10:33N 34°17' W 120°10'1010.4
2014-Jul-30 09:33N 34°14' W 119°58'1010.0
2014-Jul-30 08:33N 34°11' W 119°46'1010.2
2014-Jul-30 07:33N 34°09' W 119°34'1010.3
2014-Jul-30 06:33N 34°06' W 119°22'1110.7
2014-Jul-30 05:33N 34°02' W 119°10'1111.0
2014-Jul-30 04:33N 33°56' W 118°59'1110.6
2014-Jul-30 03:33N 33°51' W 118°48'1110.6
2014-Jul-30 02:33N 33°46' W 118°37'1111.2
2014-Jul-30 01:33N 33°40' W 118°25'9 8.6
2014-Jul-30 00:33N 33°42' W 118°15'2 2.2
2014-Jul-29 23:32N 33°44' W 118°15'0 0.0
2014-Jul-29 22:32N 33°44' W 118°15'0 0.0
2014-Jul-29 21:32N 33°44' W 118°15'0 0.0
2014-Jul-29 20:32N 33°44' W 118°15'0 0.0
2014-Jul-29 19:32N 33°44' W 118°15'0 0.0
2014-Jul-29 18:29N 33°44' W 118°15'0 0.0
2014-Jul-29 17:32N 33°44' W 118°15'0 0.0
2014-Jul-29 16:29N 33°44' W 118°15'0 0.0
2014-Jul-29 15:32N 33°44' W 118°15'0 0.0
2014-Jul-29 14:32N 33°44' W 118°15'0 0.0
2014-Jul-29 13:32N 33°44' W 118°15'0 0.0
2014-Jul-29 12:32N 33°44' W 118°15'0 0.0
2014-Jul-29 11:32N 33°44' W 118°15'0 0.0
2014-Jul-29 10:32N 33°44' W 118°15'0 0.0
2014-Jul-29 09:32N 33°44' W 118°15'0 0.0
2014-Jul-29 08:32N 33°44' W 118°15'0 0.0
2014-Jul-29 07:32N 33°44' W 118°15'0 0.0
2014-Jul-29 06:32N 33°44' W 118°15'0 0.0
2014-Jul-29 05:32N 33°44' W 118°15'0 0.0
2014-Jul-29 04:32N 33°44' W 118°15'0 0.0
2014-Jul-29 03:32N 33°44' W 118°15'0 0.0
2014-Jul-29 02:32N 33°44' W 118°15'0 0.0
2014-Jul-29 01:32N 33°44' W 118°15'0 0.0
2014-Jul-29 00:32N 33°44' W 118°15'0 0.0
2014-Jul-28 23:32N 33°44' W 118°15'0 0.0
2014-Jul-28 22:32N 33°44' W 118°15'0 0.0
2014-Jul-28 21:32N 33°44' W 118°15'0 0.0
2014-Jul-28 20:32N 33°44' W 118°15'0 0.0
2014-Jul-28 19:32N 33°44' W 118°15'0 0.0
2014-Jul-28 18:32N 33°44' W 118°15'0 0.0
2014-Jul-28 17:32N 33°44' W 118°15'0 0.0
2014-Jul-28 16:32N 33°44' W 118°15'0 0.0
2014-Jul-28 15:32N 33°44' W 118°15'0 0.0
2014-Jul-28 14:32N 33°44' W 118°15'0 0.0
2014-Jul-28 13:32N 33°44' W 118°15'0 0.0
2014-Jul-28 12:32N 33°44' W 118°15'0 0.3
2014-Jul-28 11:34N 33°44' W 118°15'6 5.6
2014-Jul-28 10:33N 33°38' W 118°16'8 7.7
2014-Jul-28 09:34N 33°38' W 118°25'9 8.6
2014-Jul-28 08:33N 33°42' W 118°34'1010.4
2014-Jul-28 07:34N 33°48' W 118°45'1212.3
2014-Jul-28 06:34N 33°54' W 118°58'1313.4
2014-Jul-28 05:34N 34°00' W 119°12'1313.1
2014-Jul-28 04:33N 34°05' W 119°26'1313.0
2014-Jul-28 03:33N 34°08' W 119°42'1313.2
2014-Jul-28 02:33N 34°12' W 119°57'1313.0
2014-Jul-28 01:33N 34°15' W 120°12'1412.9
2014-Jul-28 00:29N 34°19' W 120°28'1312.6
2014-Jul-27 23:30N 34°22' W 120°43'1111.4
2014-Jul-27 22:33N 34°25' W 120°56'1312.6
2014-Jul-27 21:32N 34°27' W 121°11'1212.4
2014-Jul-27 20:33N 34°28' W 121°26'1515.4
2014-Jul-27 19:33N 34°33' W 121°43'1615.9
2014-Jul-27 18:33N 34°36' W 122°02'814.4
2014-Jul-27 18:00N 34°36' W 122°12'919.5 110 / 131017.510.8 2.017.012.517.0
2014-Jul-27 17:33N 34°40' W 122°21'1615.8
2014-Jul-27 16:33N 34°43' W 122°40'1615.7
2014-Jul-27 15:33N 34°47' W 122°58'1818.3
2014-Jul-27 14:33N 34°49' W 123°21'1918.5
2014-Jul-27 13:33N 34°52' W 123°43'1817.8
2014-Jul-27 12:33N 34°57' W 124°04'813.4
2014-Jul-27 12:00N 34°54' W 124°12'1330.4 340 / 201017.010.8 2.016.012.418.0
2014-Jul-27 11:33N 35°01' W 124°26'1818.3
2014-Jul-27 10:33N 35°05' W 124°48'3618.2
2014-Jul-27 08:33N 35°11' W 125°31'1817.7
2014-Jul-27 07:33N 35°18' W 125°52'1818.3
2014-Jul-27 06:33N 35°27' W 126°11'1818.4
2014-Jul-27 05:33N 35°36' W 126°30'1818.2
2014-Jul-27 04:33N 35°46' W 126°50'2218.4
2014-Jul-27 03:19N 35°57' W 127°13'5917.6
2014-Jul-27 00:00N 36°24' W 128°18'   360 / 201021.510.8 2.018.012.719.0
2014-Jul-23 18:00N 44°48' W 158°42'91219.0 200 / 71031.0 0.3 1.015.014.115.0
2014-Jul-21 18:00N 45°18' E 179°48'   260 / 141024.5 5.4 1.011.510.511.0

Dump ship's entire track history